Terminal Aerodrome Forecast
Issued by NWS

Home | Current Version | Previous Version | Graphics & Text | Print | Product List | Glossary On
Versions: 1 2 3 4 5 6 7 8 9 10 11 12 13 14 15 16 17 18 19 20 21 22 23 24 25 26 27 28 29 30 31 32 33
419
FTUS43 KLOT 230647 AAA
TAFMDW
TAF AMD
KMDW 230647Z 2307/2406 36009KT 5SM BR OVC006
     FM230900 34007KT 2SM BR OVC005
      TEMPO 2309/2312 1SM BR OVC004
     FM231600 34008KT P6SM OVC015=

USA.gov is the U.S. government's official web portal to all federal, state and local government web resources and services.